Time;durP1;ratioP1;P1;durP2;ratioP2;P2;SDS_P1;SDS_P2;PMS_P1;PMS_P2;Temp;Humidity;BMP_temperature;BMP_pressure;BME280_temperature;BME280_humidity;BME280_pressure;Samples;Min_cycle;Max_cycle;Signal;HPM_P1;HPM_P2
2021/09/20 13:44:11;;;;;;;10.43;7.85;;;;;;;18.67;56.69;100096.22;1088075;54;20086;-87
2021/09/20 13:45:14;;;;;;;8.68;7.00;;;;;;;18.68;56.75;100089.78;1088113;54;20034;-83
2021/09/20 13:46:21;;;;;;;9.60;7.18;;;;;;;18.75;56.76;100097.16;1088074;54;20042;-84
2021/09/20 13:47:23;;;;;;;8.60;7.03;;;;;;;18.79;56.51;100093.00;1087935;54;20049;-82
2021/09/20 13:48:27;;;;;;;9.48;7.60;;;;;;;18.80;56.53;100103.63;1087998;54;20019;-84
2021/09/20 13:49:31;;;;;;;8.75;7.43;;;;;;;18.78;56.41;100097.59;1088104;54;20030;-83
2021/09/20 14:43:36;;;;;;;10.85;7.95;;;;;;;18.16;57.74;100094.56;1087767;54;19938;-81
2021/09/20 14:44:38;;;;;;;9.10;7.47;;;;;;;18.18;57.19;100097.09;1087982;54;20030;-86
2021/09/20 14:45:43;;;;;;;9.60;6.88;;;;;;;18.18;57.44;100107.91;1087868;54;20042;-81
2021/09/20 14:46:44;;;;;;;7.90;6.50;;;;;;;18.21;57.30;100096.69;1087874;54;20057;-82
2021/09/20 14:47:50;;;;;;;7.60;6.07;;;;;;;18.31;56.93;100101.78;1087937;54;20038;-83
2021/09/20 14:48:52;;;;;;;9.65;6.88;;;;;;;18.34;56.82;100099.53;1087760;54;20161;-83
2021/09/20 14:49:56;;;;;;;9.55;7.45;;;;;;;18.24;57.41;100096.31;1087962;54;20042;-84
2021/09/20 14:51:00;;;;;;;9.02;7.22;;;;;;;18.20;57.22;100106.69;1087942;54;20061;-83
2021/09/20 14:52:02;;;;;;;9.88;7.70;;;;;;;18.23;57.43;100100.84;1090201;46;20081;-83
2021/09/20 14:53:10;;;;;;;9.00;7.45;;;;;;;18.19;57.61;100104.16;1088058;54;20043;-85
2021/09/20 14:54:12;;;;;;;8.77;7.00;;;;;;;18.17;57.52;100100.81;1088105;54;20701;-85
2021/09/20 15:16:46;;;;;;;11.43;7.07;;;;;;;17.96;57.61;100115.13;1086638;54;20035;-85
2021/09/20 15:17:55;;;;;;;10.02;7.93;;;;;;;17.99;57.60;100122.91;1087891;54;20035;-85
2021/09/20 15:18:57;;;;;;;8.85;7.78;;;;;;;18.06;57.90;100118.38;1087725;54;20034;-84
2021/09/20 15:20:02;;;;;;;9.65;7.28;;;;;;;18.05;57.82;100119.41;1087861;54;20038;-86
2021/09/20 15:21:05;;;;;;;11.90;7.18;;;;;;;17.98;57.60;100115.81;1088229;54;20066;-85
2021/09/20 15:22:09;;;;;;;10.88;7.70;;;;;;;17.96;57.56;100117.81;1088395;54;20030;-84
2021/09/20 15:24:28;;;;;;;9.85;7.35;;;;;;;17.95;57.35;100127.00;1087977;54;20026;-84
2021/09/20 15:25:32;;;;;;;9.50;7.32;;;;;;;18.02;57.35;100128.75;1087769;54;21037;-83
2021/09/20 15:26:37;;;;;;;8.55;7.32;;;;;;;18.08;57.25;100124.44;1088036;54;20059;-86
2021/09/20 15:27:42;;;;;;;12.82;9.73;;;;;;;18.08;56.67;100127.16;1088229;54;20042;-85
2021/09/20 15:28:46;;;;;;;17.52;11.73;;;;;;;18.05;56.86;100128.38;1088219;54;20042;-85
2021/09/20 15:29:48;;;;;;;11.70;9.40;;;;;;;17.97;57.10;100127.66;1087876;54;20038;-85
2021/09/20 15:30:54;;;;;;;11.88;8.50;;;;;;;17.98;57.09;100129.31;1089218;46;20034;-84
2021/09/20 15:32:01;;;;;;;10.02;7.47;;;;;;;17.94;56.84;100131.56;1088415;54;20082;-87
2021/09/20 15:33:06;;;;;;;9.15;6.95;;;;;;;17.93;57.01;100135.28;1088218;54;20034;-83
2021/09/20 15:34:07;;;;;;;11.32;7.22;;;;;;;17.98;56.81;100129.31;1088134;54;20023;-85
2021/09/20 15:35:14;;;;;;;7.70;6.55;;;;;;;17.96;56.86;100134.06;1087986;54;20058;-85
2021/09/20 15:36:20;;;;;;;9.80;7.75;;;;;;;18.01;56.88;100131.66;1087783;54;20031;-85
2021/09/20 15:37:22;;;;;;;10.05;6.32;;;;;;;18.05;56.74;100132.94;1087882;54;20061;-84
2021/09/20 15:38:26;;;;;;;10.02;6.95;;;;;;;18.01;56.45;100131.66;1088056;54;21407;-83
2021/09/20 15:39:28;;;;;;;8.93;6.57;;;;;;;18.00;56.95;100135.38;1087920;54;20045;-83
2021/09/20 15:40:33;;;;;;;9.05;7.13;;;;;;;17.96;56.50;100131.34;1088111;54;20109;-83
2021/09/20 15:41:37;;;;;;;10.60;7.65;;;;;;;17.91;56.31;100131.91;1087931;54;20035;-85
2021/09/20 15:42:47;;;;;;;9.73;7.35;;;;;;;17.85;56.44;100132.69;1087853;54;20035;-84
2021/09/20 15:43:50;;;;;;;8.70;6.90;;;;;;;17.91;56.26;100135.47;1088100;39;20627;-81
2021/09/20 15:44:55;;;;;;;9.98;7.15;;;;;;;17.85;56.47;100136.25;1087748;54;20034;-86
2021/09/20 15:45:57;;;;;;;9.40;7.15;;;;;;;17.84;56.37;100139.97;1087842;54;20040;-86
2021/09/20 15:47:05;;;;;;;7.60;6.22;;;;;;;17.84;56.30;100133.72;1087739;54;20030;-83
2021/09/20 15:48:06;;;;;;;9.18;6.75;;;;;;;17.86;56.62;100137.91;1087490;54;20094;-81
2021/09/20 15:49:10;;;;;;;8.75;6.47;;;;;;;17.88;56.42;100143.97;1087709;54;20042;-82
2021/09/20 15:50:12;;;;;;;8.15;6.70;;;;;;;17.91;56.35;100140.88;1088068;54;20022;-83
2021/09/20 15:51:20;;;;;;;12.13;9.70;;;;;;;17.91;55.96;100137.34;1091403;31;20864;-84
2021/09/20 16:15:46;;;;;;;6.93;5.50;;;;;;;17.41;56.79;100169.56;1087172;54;20098;-78
2021/09/20 16:16:50;;;;;;;7.40;5.90;;;;;;;17.45;56.53;100179.00;1088118;39;20229;-81
2021/09/20 16:17:54;;;;;;;7.95;6.20;;;;;;;17.42;56.27;100176.66;1087348;54;20022;-81
2021/09/20 16:18:58;;;;;;;8.82;6.43;;;;;;;17.44;56.24;100174.59;1087297;54;20038;-80
2021/09/20 16:20:00;;;;;;;9.45;6.20;;;;;;;17.49;56.26;100174.88;1087583;54;20039;-82
2021/09/20 16:21:05;;;;;;;8.77;6.20;;;;;;;17.49;56.50;100180.28;1087552;54;20081;-82
2021/09/20 16:22:06;;;;;;;8.77;6.20;;;;;;;17.57;56.29;100185.56;1087630;54;20034;-81
2021/09/20 16:23:15;;;;;;;7.80;5.82;;;;;;;17.53;56.34;100183.44;1087658;54;20030;-79
2021/09/20 16:24:20;;;;;;;7.63;5.60;;;;;;;17.56;56.23;100180.38;1087882;46;20098;-80
2021/09/20 16:25:25;;;;;;;8.85;7.05;;;;;;;17.62;56.38;100187.72;1088553;46;20027;-80
2021/09/20 16:26:27;;;;;;;10.32;7.88;;;;;;;17.60;56.27;100184.38;1087448;54;20035;-80
2021/09/20 16:27:31;;;;;;;10.55;8.63;;;;;;;17.55;56.40;100187.66;1088102;39;20283;-80
2021/09/20 16:28:35;;;;;;;9.88;6.63;;;;;;;17.54;56.44;100191.38;1087610;54;20035;-82
2021/09/20 16:29:38;;;;;;;7.90;6.18;;;;;;;17.56;55.81;100189.34;1087706;54;20772;-83
2021/09/20 16:30:42;;;;;;;9.00;6.32;;;;;;;17.54;55.82;100196.78;1087705;54;20683;-86
2021/09/20 16:31:46;;;;;;;8.25;6.40;;;;;;;17.52;55.73;100198.00;1087671;54;20034;-83
2021/09/20 16:32:51;;;;;;;9.52;6.25;;;;;;;17.49;55.93;100193.78;1087588;54;20936;-85
2021/09/20 16:33:55;;;;;;;7.10;6.18;;;;;;;17.51;55.85;100197.16;1087707;54;20031;-85
2021/09/20 16:34:58;;;;;;;8.10;6.53;;;;;;;17.53;55.62;100199.66;1088404;46;20123;-83
2021/09/20 16:36:03;;;;;;;8.18;6.75;;;;;;;17.47;55.72;100201.25;1087977;54;20030;-84
2021/09/20 16:37:06;;;;;;;7.78;5.32;;;;;;;17.51;55.83;100196.31;1087876;54;20026;-84
2021/09/20 16:38:10;;;;;;;7.45;6.10;;;;;;;17.48;55.88;100196.69;1087972;54;20035;-86
2021/09/20 16:39:12;;;;;;;8.48;6.55;;;;;;;17.51;55.61;100199.84;1087769;54;20041;-83
2021/09/20 16:40:23;;;;;;;7.60;6.10;;;;;;;17.50;55.75;100198.16;1087662;54;20427;-84
2021/09/20 16:41:27;;;;;;;8.20;6.15;;;;;;;17.46;55.97;100199.59;1089075;46;20034;-84
2021/09/20 16:42:32;;;;;;;8.55;6.75;;;;;;;17.49;55.76;100204.59;1088330;46;20034;-83
2021/09/20 16:43:36;;;;;;;8.05;6.35;;;;;;;17.47;55.85;100206.66;1087441;54;20030;-84
2021/09/20 16:44:38;;;;;;;10.38;6.43;;;;;;;17.38;56.07;100207.78;1087405;54;20045;-84
2021/09/20 16:45:42;;;;;;;8.55;6.13;;;;;;;17.36;55.97;100216.06;1088066;46;20030;-82
2021/09/20 16:46:49;;;;;;;7.13;5.72;;;;;;;17.43;56.17;100213.47;1087506;54;20061;-86
2021/09/20 16:47:52;;;;;;;9.00;6.63;;;;;;;17.42;56.39;100218.03;1087792;54;20019;-83
2021/09/20 16:48:56;;;;;;;7.60;5.72;;;;;;;17.37;56.16;100212.34;1087980;54;20046;-83
2021/09/20 16:49:58;;;;;;;8.52;6.43;;;;;;;17.37;56.00;100223.16;1087595;54;20034;-83
2021/09/20 16:51:03;;;;;;;7.85;6.18;;;;;;;17.34;56.02;100214.56;1087636;54;20058;-83
2021/09/20 16:52:05;;;;;;;7.65;6.15;;;;;;;17.37;56.03;100214.22;1087646;54;20038;-81
2021/09/20 16:53:09;;;;;;;9.88;5.93;;;;;;;17.37;55.89;100223.16;1088990;39;21071;-81
2021/09/20 16:54:11;;;;;;;7.50;5.80;;;;;;;17.38;55.94;100222.13;1087419;54;20030;-81
2021/09/20 16:55:16;;;;;;;6.63;4.97;;;;;;;17.46;56.12;100235.53;1087649;54;20018;-83
2021/09/20 16:56:23;;;;;;;8.70;5.10;;;;;;;17.46;55.84;100229.31;1087365;54;20030;-82
2021/09/20 16:57:27;;;;;;;7.22;5.65;;;;;;;17.39;56.00;100226.50;1087570;54;20088;-82
2021/09/20 16:58:31;;;;;;;8.85;5.65;;;;;;;17.37;56.16;100235.81;1087676;54;20035;-78
2021/09/20 16:59:33;;;;;;;6.53;5.10;;;;;;;17.35;55.98;100236.00;1087608;54;20030;-82
2021/09/20 17:02:02;;;;;;;6.85;5.47;;;;;;;17.21;56.03;100239.53;1086771;54;20127;-74
2021/09/20 17:03:07;;;;;;;8.85;5.90;;;;;;;17.18;56.12;100240.75;1087336;54;20058;-79
2021/09/20 17:04:09;;;;;;;6.85;5.68;;;;;;;17.14;56.33;100240.25;1087054;54;20036;-80
2021/09/20 17:05:14;;;;;;;7.78;5.97;;;;;;;17.14;56.45;100237.53;1087226;54;20101;-87
2021/09/20 17:06:16;;;;;;;6.90;5.70;;;;;;;17.12;56.08;100249.56;1087020;54;20038;-82
2021/09/20 17:07:21;;;;;;;7.53;6.00;;;;;;;17.13;56.03;100235.03;1087283;54;20014;-83
2021/09/20 17:08:27;;;;;;;7.80;6.03;;;;;;;17.08;56.60;100251.78;1088006;39;20703;-85
2021/09/20 17:09:30;;;;;;;7.35;5.43;;;;;;;17.08;56.23;100248.25;1087458;54;20046;-86
2021/09/20 17:10:34;;;;;;;9.10;5.55;;;;;;;17.09;56.26;100244.53;1087138;54;20114;-79
2021/09/20 17:11:36;;;;;;;8.80;5.70;;;;;;;17.03;56.30;100248.81;1087250;54;20034;-87
2021/09/20 17:12:40;;;;;;;7.68;6.15;;;;;;;16.93;56.40;100251.75;1087034;54;20145;-79
2021/09/20 17:13:44;;;;;;;6.55;4.75;;;;;;;17.00;56.62;100250.00;1086981;54;20034;-78
2021/09/20 17:14:46;;;;;;;8.73;5.57;;;;;;;16.98;56.48;100252.06;1087189;46;20058;-80
2021/09/20 17:16:11;;;;;;;14.05;8.80;;;;;;;16.91;56.84;100250.22;1087278;54;20027;-79
2021/09/20 17:17:22;;;;;;;8.70;6.65;;;;;;;16.90;56.74;100251.25;1087609;54;20039;-83
2021/09/20 17:18:26;;;;;;;7.30;5.78;;;;;;;16.87;56.80;100249.75;1087912;54;20031;-87
2021/09/20 17:19:28;;;;;;;8.55;6.43;;;;;;;16.88;56.80;100250.56;1087933;54;20031;-81
2021/09/20 17:20:32;;;;;;;7.35;5.57;;;;;;;16.89;56.85;100252.25;1087607;54;20042;-78
2021/09/20 17:21:37;;;;;;;8.10;6.20;;;;;;;16.88;56.83;100256.81;1087914;54;20034;-77
2021/09/20 17:22:42;;;;;;;7.85;6.30;;;;;;;16.86;56.97;100258.88;1087905;54;20046;-79
2021/09/20 17:23:43;;;;;;;7.32;5.85;;;;;;;16.81;57.17;100254.00;1087589;54;20030;-86
2021/09/20 17:24:48;;;;;;;8.18;5.97;;;;;;;16.78;57.34;100257.06;1087882;54;20142;-83
2021/09/20 17:25:49;;;;;;;8.32;6.05;;;;;;;16.78;57.31;100261.63;1088084;39;20630;-85
2021/09/20 17:26:55;;;;;;;6.88;5.05;;;;;;;16.85;57.30;100257.19;1087966;54;20018;-84
2021/09/20 17:27:56;;;;;;;7.05;6.00;;;;;;;16.85;57.28;100257.19;1087945;54;20058;-86
2021/09/20 17:29:01;;;;;;;6.90;5.50;;;;;;;16.82;57.36;100262.94;1088029;54;20094;-85
2021/09/20 17:30:04;;;;;;;13.75;6.57;;;;;;;16.89;57.18;100260.34;1088117;54;20038;-86
2021/09/20 17:31:08;;;;;;;8.48;5.25;;;;;;;16.80;57.56;100259.59;1088113;54;20026;-87
2021/09/20 17:32:10;;;;;;;7.07;5.65;;;;;;;16.81;57.19;100261.28;1088018;54;20039;-86
2021/09/20 17:33:17;;;;;;;7.30;5.43;;;;;;;16.80;57.09;100259.59;1087918;54;20018;-87
2021/09/20 17:34:19;;;;;;;7.43;5.63;;;;;;;16.79;57.12;100260.63;1087972;54;20032;-84
2021/09/20 17:35:23;;;;;;;8.05;5.53;;;;;;;16.79;56.84;100264.13;1087947;54;20061;-85
2021/09/20 17:36:28;;;;;;;7.30;5.53;;;;;;;16.77;56.68;100260.78;1087965;54;20018;-84
2021/09/20 17:37:32;;;;;;;6.50;5.28;;;;;;;16.78;55.94;100267.84;1087886;54;20065;-84
2021/09/20 17:38:36;;;;;;;7.03;5.65;;;;;;;16.78;56.09;100259.75;1087621;54;20042;-84
2021/09/20 17:39:38;;;;;;;6.63;5.45;;;;;;;16.75;55.82;100272.78;1088685;39;20540;-82
2021/09/20 17:40:43;;;;;;;6.55;5.10;;;;;;;16.75;56.24;100270.06;1087835;54;21238;-85
2021/09/20 17:41:47;;;;;;;8.55;5.68;;;;;;;16.75;55.94;100272.78;1088080;54;20045;-86
2021/09/20 17:42:52;;;;;;;7.80;5.10;;;;;;;16.83;55.95;100268.16;1088183;54;20414;-85
2021/09/20 17:43:54;;;;;;;6.57;4.72;;;;;;;16.88;55.48;100270.31;1088226;54;20034;-85
2021/09/20 17:44:58;;;;;;;5.70;4.30;;;;;;;16.93;55.70;100270.63;1088051;54;20026;-84
2021/09/20 17:46:00;;;;;;;7.43;4.90;;;;;;;16.91;55.70;100272.66;1088102;54;20038;-84
2021/09/20 17:47:05;;;;;;;6.00;4.65;;;;;;;16.92;55.80;100270.81;1087963;54;20650;-86
2021/09/20 17:48:10;;;;;;;6.28;4.03;;;;;;;16.86;55.88;100275.06;1087873;54;20800;-87
2021/09/20 17:49:15;;;;;;;6.32;4.50;;;;;;;16.83;55.60;100281.66;1087993;54;20030;-86
2021/09/20 17:50:21;;;;;;;6.63;4.70;;;;;;;16.88;55.65;100275.72;1088139;54;20049;-86
2021/09/20 17:51:23;;;;;;;5.82;4.43;;;;;;;16.91;55.59;100277.22;1088031;54;20080;-84
2021/09/20 17:52:27;;;;;;;8.70;5.10;;;;;;;16.76;55.33;100275.31;1087990;54;20069;-85
2021/09/20 17:53:32;;;;;;;7.85;4.93;;;;;;;16.76;55.36;100280.72;1087957;54;20038;-85
2021/09/20 17:54:36;;;;;;;7.55;4.60;;;;;;;16.76;55.60;100290.66;1088027;54;20037;-87
2021/09/20 17:55:40;;;;;;;6.32;5.00;;;;;;;16.78;55.53;100288.63;1087913;54;20041;-85
2021/09/20 17:56:42;;;;;;;7.93;5.10;;;;;;;16.74;54.90;100284.59;1087822;54;20039;-85
2021/09/20 17:57:47;;;;;;;6.88;5.07;;;;;;;16.65;55.18;100281.94;1087847;54;20445;-84
2021/09/20 18:00:10;;;;;;;6.35;4.63;;;;;;;16.72;54.85;100294.75;1087510;54;20038;-85
2021/09/20 18:01:12;;;;;;;6.03;4.40;;;;;;;16.68;55.32;100292.41;1088103;46;20031;-83
2021/09/20 18:02:16;;;;;;;8.20;5.85;;;;;;;16.67;55.40;100292.59;1087818;54;20549;-85
2021/09/20 18:04:30;;;;;;;6.43;4.88;;;;;;;16.71;55.27;100298.47;1087864;54;20037;-85
2021/09/20 18:05:32;;;;;;;7.30;4.60;;;;;;;16.67;55.19;100301.50;1088025;54;20045;-86
2021/09/20 18:06:38;;;;;;;5.78;4.38;;;;;;;16.67;54.87;100298.00;1087789;54;20043;-84
2021/09/20 18:07:42;;;;;;;6.55;5.07;;;;;;;16.63;55.28;100297.47;1087998;54;20049;-84
2021/09/20 18:08:44;;;;;;;10.00;5.60;;;;;;;16.61;55.47;100299.53;1088072;54;20058;-84
2021/09/20 18:09:48;;;;;;;9.55;5.70;;;;;;;16.59;54.98;100298.88;1087613;54;20642;-83
2021/09/20 18:10:53;;;;;;;6.05;4.95;;;;;;;16.57;55.00;100313.56;1089716;46;20117;-84
2021/09/20 18:11:58;;;;;;;8.25;5.60;;;;;;;16.56;55.21;100299.22;1087839;54;20669;-84
2021/09/20 18:13:02;;;;;;;7.07;4.95;;;;;;;16.59;55.07;100300.72;1087859;54;20041;-84
2021/09/20 18:14:07;;;;;;;7.28;4.72;;;;;;;16.57;54.95;100297.38;1087981;54;20031;-84
2021/09/20 18:15:13;;;;;;;6.70;4.93;;;;;;;16.63;54.71;100302.03;1087916;54;20034;-84
2021/09/20 18:16:18;;;;;;;6.40;4.60;;;;;;;16.69;54.72;100304.03;1088051;54;20019;-85
2021/09/20 18:17:20;;;;;;;7.90;5.32;;;;;;;16.68;54.61;100305.03;1088079;54;20031;-82
2021/09/20 18:18:24;;;;;;;9.57;5.35;;;;;;;16.66;54.86;100297.13;1087719;54;20030;-83
2021/09/20 18:19:28;;;;;;;8.77;5.15;;;;;;;16.65;54.45;100305.41;1088107;54;20045;-84
2021/09/20 18:20:32;;;;;;;9.23;5.70;;;;;;;16.60;54.47;100314.03;1088015;54;20058;-82
2021/09/20 18:21:34;;;;;;;6.65;5.13;;;;;;;16.57;54.88;100316.25;1087976;46;20034;-85
2021/09/20 18:22:43;;;;;;;8.02;5.15;;;;;;;16.55;54.54;100315.59;1087957;54;20042;-86
2021/09/20 18:23:49;;;;;;;8.32;5.10;;;;;;;16.47;55.01;100319.16;1087728;54;20075;-83
2021/09/20 18:24:51;;;;;;;6.53;5.25;;;;;;;16.48;54.96;100324.38;1091162;39;20359;-83
2021/09/20 18:25:55;;;;;;;6.43;4.88;;;;;;;16.51;55.25;100320.50;1087890;54;20031;-84
2021/09/20 18:28:26;;;;;;;7.03;4.88;;;;;;;16.51;55.33;100328.59;1087901;54;20801;-82
2021/09/20 18:29:40;;;;;;;;;;;;;;;;;;;;;
2021/09/20 18:30:45;;;;;;;6.00;4.75;;;;;;;16.49;55.27;100322.53;1087908;54;20026;-84
2021/09/20 18:31:49;;;;;;;6.75;4.78;;;;;;;16.51;55.49;100328.59;1087830;54;20041;-84
2021/09/20 18:32:54;;;;;;;6.47;4.75;;;;;;;16.50;55.24;100330.44;1087737;47;20058;-83
2021/09/20 18:33:56;;;;;;;6.93;4.97;;;;;;;16.51;55.31;100331.31;1088155;47;20057;-85
2021/09/20 18:35:04;;;;;;;9.05;5.00;;;;;;;16.46;55.75;100329.13;1087815;46;20117;-80
2021/09/20 18:36:09;;;;;;;10.60;6.28;;;;;;;16.41;55.66;100334.19;1087371;54;20729;-84
2021/09/20 18:37:11;;;;;;;8.13;5.15;;;;;;;16.40;55.75;100326.28;1088579;47;20045;-81
2021/09/20 18:38:15;;;;;;;7.60;6.15;;;;;;;16.41;55.59;100331.50;1087564;54;20031;-77
2021/09/20 18:39:20;;;;;;;7.13;5.10;;;;;;;16.35;55.94;100327.66;1087746;47;20026;-81
2021/09/20 18:40:24;;;;;;;11.40;8.75;;;;;;;16.36;55.92;100325.81;1087696;54;20145;-81
2021/09/20 18:41:29;;;;;;;9.32;6.40;;;;;;;16.34;56.04;100336.75;1087493;54;21194;-82
2021/09/20 18:42:31;;;;;;;7.88;6.35;;;;;;;16.30;56.04;100335.44;1087424;54;20057;-79
2021/09/20 18:43:35;;;;;;;8.55;5.43;;;;;;;16.37;55.94;100335.59;1087560;54;20041;-80
2021/09/20 18:44:37;;;;;;;7.32;5.65;;;;;;;16.28;56.23;100326.69;1087906;47;20034;-80
2021/09/20 18:45:41;;;;;;;9.35;5.10;;;;;;;16.29;56.22;100333.75;1087653;54;20037;-80
2021/09/20 18:46:46;;;;;;;7.63;5.20;;;;;;;16.25;56.51;100337.81;1087705;54;20035;-83
2021/09/20 18:47:52;;;;;;;7.43;5.03;;;;;;;16.29;56.68;100343.72;1087465;54;20045;-86
2021/09/20 18:48:54;;;;;;;9.13;7.03;;;;;;;16.32;56.43;100332.56;1087516;54;20045;-84
2021/09/20 18:49:58;;;;;;;7.93;5.65;;;;;;;16.31;56.21;100337.13;1089060;47;20038;-83
2021/09/20 18:51:05;;;;;;;7.07;5.03;;;;;;;16.35;56.51;100338.44;1087859;47;20010;-85
2021/09/20 18:52:10;;;;;;;6.55;5.10;;;;;;;16.38;56.35;100334.56;1088309;47;20026;-82
2021/09/20 18:53:14;;;;;;;6.80;4.78;;;;;;;16.40;56.22;100329.81;1087657;54;20031;-81
2021/09/20 18:54:18;;;;;;;6.63;4.75;;;;;;;16.43;56.36;100339.44;1087629;54;20026;-82
2021/09/20 18:55:23;;;;;;;7.03;5.22;;;;;;;16.43;56.20;100342.97;1088219;47;20011;-76
2021/09/20 18:56:29;;;;;;;7.07;4.40;;;;;;;16.47;56.15;100338.06;1087718;54;20125;-83
2021/09/20 18:57:31;;;;;;;6.22;4.53;;;;;;;16.50;56.17;100345.81;1087641;54;20065;-80
2021/09/20 18:58:36;;;;;;;5.65;4.45;;;;;;;16.55;56.05;100347.97;1087564;54;20072;-79
2021/09/20 18:59:41;;;;;;;5.78;4.43;;;;;;;16.56;55.92;100341.56;1087497;54;20034;-81
2021/09/20 19:00:45;;;;;;;7.32;4.55;;;;;;;16.57;55.90;100346.78;1087529;54;20031;-81
2021/09/20 19:01:47;;;;;;;6.25;4.43;;;;;;;16.60;55.70;100346.44;1089013;39;20287;-82
2021/09/20 19:02:51;;;;;;;7.15;4.68;;;;;;;16.63;55.31;100351.44;1087613;54;20042;-84
2021/09/20 19:03:53;;;;;;;7.10;4.80;;;;;;;16.63;55.47;100353.31;1087541;54;20038;-82
2021/09/20 19:04:57;;;;;;;7.13;5.05;;;;;;;16.65;55.06;100349.44;1087548;54;20033;-82
2021/09/20 19:06:01;;;;;;;6.95;4.90;;;;;;;16.60;55.02;100356.38;1087623;54;20049;-81
2021/09/20 19:07:09;;;;;;;7.82;5.07;;;;;;;16.56;54.81;100349.66;1088646;39;20249;-82
2021/09/20 19:08:13;;;;;;;7.47;5.30;;;;;;;16.53;55.55;100358.97;1087634;54;20039;-80
2021/09/20 19:09:19;;;;;;;6.15;4.47;;;;;;;16.59;55.24;100365.47;1087426;54;20030;-81
2021/09/20 19:10:23;;;;;;;6.20;4.25;;;;;;;16.60;55.05;100357.22;1087552;54;20046;-82
2021/09/20 19:11:27;;;;;;;6.03;4.63;;;;;;;16.50;55.03;100365.53;1087448;54;20034;-80
2021/09/20 19:12:29;;;;;;;8.20;5.28;;;;;;;16.48;55.25;100355.94;1087446;54;20041;-82
2021/09/20 19:13:34;;;;;;;7.30;5.25;;;;;;;16.48;55.01;100361.31;1087459;54;20035;-81
2021/09/20 19:14:35;;;;;;;6.32;4.50;;;;;;;16.53;55.15;100358.97;1087631;54;20722;-82
2021/09/20 19:15:39;;;;;;;7.18;5.15;;;;;;;16.53;55.04;100375.16;1087643;54;20019;-80
2021/09/20 19:16:41;;;;;;;6.53;4.53;;;;;;;16.51;54.57;100369.06;1087435;54;20041;-81
2021/09/20 19:17:45;;;;;;;6.72;5.05;;;;;;;16.42;55.00;100364.75;1087606;54;20030;-79
2021/09/20 19:19:03;;;;;;;6.93;4.50;;;;;;;16.43;55.02;100369.13;1087594;54;20041;-78
2021/09/20 19:20:10;;;;;;;5.72;4.20;;;;;;;16.47;55.06;100373.13;1087599;54;20041;-83
2021/09/20 19:21:15;;;;;;;6.47;4.30;;;;;;;16.46;54.98;100376.84;1087530;54;20041;-82
2021/09/20 19:22:19;;;;;;;5.82;4.10;;;;;;;16.49;54.84;100368.41;1087572;54;20082;-82
2021/09/20 19:23:23;;;;;;;6.20;3.95;;;;;;;16.52;54.59;100376.16;1087690;54;20030;-80
2021/09/20 19:24:25;;;;;;;6.28;4.40;;;;;;;16.45;54.79;100372.47;1089009;46;20041;-81
2021/09/20 19:25:29;;;;;;;6.15;4.60;;;;;;;16.49;54.62;100373.81;1087913;54;20030;-83
2021/09/20 19:26:33;;;;;;;5.28;4.00;;;;;;;16.55;54.53;100374.97;1087926;54;20041;-81
2021/09/20 19:27:35;;;;;;;6.75;4.50;;;;;;;16.46;54.83;100379.53;1087609;54;20046;-81
2021/09/20 19:28:39;;;;;;;6.20;4.57;;;;;;;16.36;54.72;100375.19;1088164;46;20041;-79
2021/09/20 19:29:44;;;;;;;6.45;4.60;;;;;;;16.31;55.00;100374.91;1087887;54;20038;-84
2021/09/20 19:30:45;;;;;;;6.00;4.78;;;;;;;16.30;55.08;100378.59;1087950;54;20817;-82
2021/09/20 19:31:50;;;;;;;8.00;5.22;;;;;;;16.30;54.86;100380.44;1087876;54;20119;-80
2021/09/20 19:32:54;;;;;;;7.40;5.00;;;;;;;16.29;54.63;100378.78;1087875;54;20034;-79
2021/09/20 19:33:59;;;;;;;9.70;5.43;;;;;;;16.21;55.14;100379.66;1088000;39;20194;-80
2021/09/20 19:35:01;;;;;;;6.43;4.53;;;;;;;16.15;54.90;100388.44;1087604;54;20034;-81
2021/09/20 19:36:07;;;;;;;7.40;4.97;;;;;;;16.14;55.11;100384.88;1087833;54;20082;-81
2021/09/20 19:37:11;;;;;;;7.97;4.63;;;;;;;16.14;55.10;100389.44;1087830;47;20060;-83
2021/09/20 19:38:15;;;;;;;6.72;4.90;;;;;;;16.12;54.87;100386.09;1087830;54;20034;-81
2021/09/20 19:39:19;;;;;;;8.07;5.30;;;;;;;16.05;55.09;100384.09;1087685;54;20189;-81
2021/09/20 19:40:23;;;;;;;6.57;4.78;;;;;;;16.05;54.97;100381.38;1087842;54;20015;-81
2021/09/20 19:41:25;;;;;;;6.78;5.10;;;;;;;16.03;55.13;100382.56;1088081;54;20062;-87
2021/09/20 19:42:30;;;;;;;6.80;4.68;;;;;;;16.02;55.39;100381.72;1088173;54;20042;-82
2021/09/20 19:43:37;;;;;;;6.20;4.50;;;;;;;15.99;55.21;100378.53;1088030;54;20023;-79
2021/09/20 19:44:41;;;;;;;7.00;5.43;;;;;;;16.01;55.36;100387.28;1087768;54;20861;-81
2021/09/20 19:45:46;;;;;;;7.57;5.40;;;;;;;16.05;55.00;100388.63;1087822;54;20046;-83
2021/09/20 19:46:47;;;;;;;8.40;4.68;;;;;;;16.05;55.21;100392.19;1087748;54;20042;-80
2021/09/20 19:47:52;;;;;;;7.10;4.63;;;;;;;16.08;54.98;100395.50;1087794;54;20035;-81
2021/09/20 19:48:56;;;;;;;5.85;4.65;;;;;;;16.08;54.90;100387.44;1087697;54;20035;-83
2021/09/20 19:49:58;;;;;;;5.70;4.18;;;;;;;16.11;54.69;100393.31;1087764;54;20042;-82
2021/09/20 19:51:02;;;;;;;5.97;4.40;;;;;;;16.06;54.93;100391.13;1087828;54;20038;-82
2021/09/20 19:52:04;;;;;;;5.93;4.40;;;;;;;16.04;54.93;100398.56;1087796;54;20054;-82
2021/09/20 19:53:08;;;;;;;5.90;4.40;;;;;;;16.08;54.91;100399.06;1087717;54;20042;-83
2021/09/20 19:54:15;;;;;;;6.40;4.40;;;;;;;16.01;55.07;100401.59;1087901;46;20038;-81
2021/09/20 19:55:21;;;;;;;6.35;4.75;;;;;;;15.96;54.74;100393.22;1087802;54;20041;-80
2021/09/20 19:56:25;;;;;;;5.95;4.38;;;;;;;15.96;54.68;100398.59;1087822;54;20030;-80
2021/09/20 19:57:26;;;;;;;5.40;4.28;;;;;;;15.94;54.86;100403.31;1087701;54;20042;-82
2021/09/20 19:58:32;;;;;;;5.82;4.18;;;;;;;15.97;54.54;100405.66;1087589;54;20057;-82
2021/09/20 19:59:37;;;;;;;6.78;4.45;;;;;;;15.98;54.67;100399.25;1088022;46;20058;-81
2021/09/20 20:00:40;;;;;;;8.15;4.68;;;;;;;16.01;54.87;100403.47;1089271;46;20034;-80
2021/09/20 20:01:45;;;;;;;5.72;4.00;;;;;;;16.06;54.77;100403.78;1088510;46;20031;-81
2021/09/20 20:02:47;;;;;;;6.95;4.18;;;;;;;16.07;54.71;100416.25;1087847;54;20034;-82
2021/09/20 20:03:51;;;;;;;7.63;4.30;;;;;;;15.95;54.47;100412.22;1087779;54;20105;-81
2021/09/20 20:04:55;;;;;;;6.18;4.32;;;;;;;15.96;54.33;100408.53;1087784;54;20034;-84
2021/09/20 20:06:00;;;;;;;8.02;5.60;;;;;;;15.88;53.86;100409.38;1087672;54;20038;-79
2021/09/20 20:07:04;;;;;;;8.00;5.47;;;;;;;15.87;54.15;100410.41;1087888;54;20039;-81
2021/09/20 20:08:08;;;;;;;7.70;5.00;;;;;;;15.86;53.90;100404.16;1087723;54;20058;-80
2021/09/20 20:09:13;;;;;;;8.48;4.80;;;;;;;15.75;53.65;100418.81;1087702;54;20049;-79
2021/09/20 20:10:17;;;;;;;8.27;6.10;;;;;;;15.73;53.51;100412.75;1087596;54;20030;-81
2021/09/20 20:11:19;;;;;;;8.07;6.55;;;;;;;15.70;53.35;100412.25;1087800;54;20098;-80
2021/09/20 20:12:23;;;;;;;7.90;6.10;;;;;;;15.73;53.48;100415.44;1087832;31;20833;-83
2021/09/20 20:13:28;;;;;;;7.25;5.40;;;;;;;15.74;53.55;100405.47;1087820;54;20066;-82
2021/09/20 20:14:30;;;;;;;6.47;4.70;;;;;;;15.75;53.67;100415.25;1087925;46;20506;-81
2021/09/20 20:15:35;;;;;;;6.97;4.60;;;;;;;15.82;53.46;100412.72;1088652;39;20666;-81
2021/09/20 20:16:36;;;;;;;5.72;3.88;;;;;;;15.82;53.58;100412.72;1087791;54;20019;-81
2021/09/20 20:17:40;;;;;;;5.60;3.92;;;;;;;15.81;53.54;100413.72;1088551;46;20651;-82
2021/09/20 20:18:45;;;;;;;6.47;4.38;;;;;;;15.79;53.39;100415.75;1087910;54;20069;-80
2021/09/20 20:19:46;;;;;;;6.32;4.75;;;;;;;15.75;53.34;100412.56;1087750;54;20023;-78
2021/09/20 20:21:00;;;;;;;5.85;4.10;;;;;;;15.74;52.95;100419.81;1087645;31;20722;-83
2021/09/20 20:22:19;;;;;;;;;;;;;;;;;;;;;
2021/09/20 20:27:11;;;;;;;5.78;4.47;;;;;;;15.64;53.81;100426.38;1087248;54;20034;-83
2021/09/20 20:28:12;;;;;;;7.35;3.72;;;;;;;15.69;53.67;100424.03;1087644;54;20022;-81
2021/09/20 20:29:16;;;;;;;5.35;3.80;;;;;;;15.68;53.53;100423.16;1087676;54;20094;-83
2021/09/20 20:30:18;;;;;;;5.82;4.30;;;;;;;15.64;53.37;100427.22;1088368;46;20034;-81
2021/09/20 20:31:27;;;;;;;5.57;3.97;;;;;;;15.63;53.29;100435.50;1087784;54;20042;-81